Time;durP1;ratioP1;P1;durP2;ratioP2;P2;SDS_P1;SDS_P2;PMS_P1;PMS_P2;Temp;Humidity;BMP_temperature;BMP_pressure;BME280_temperature;BME280_humidity;BME280_pressure;Samples;Min_cycle;Max_cycle;Signal;HPM_P1;HPM_P2
2023/05/03 00:00:17;;;;;;;4.93;2.20;;;;;;;6.41;62.09;102103.84;7395098;19;20371;-69
2023/05/03 00:02:46;;;;;;;3.55;2.47;;;;;;;6.35;62.16;102098.53;7397754;19;20019;-69
2023/05/03 00:05:17;;;;;;;6.88;3.58;;;;;;;6.32;62.25;102098.47;7399228;19;20015;-69
2023/05/03 00:07:47;;;;;;;4.90;2.90;;;;;;;6.27;62.34;102094.88;7401139;19;20015;-68
2023/05/03 00:10:16;;;;;;;8.13;2.95;;;;;;;6.25;62.18;102099.22;7400239;19;20481;-69
2023/05/03 00:12:45;;;;;;;7.63;2.80;;;;;;;6.22;61.91;102104.34;7399541;19;20014;-69
2023/05/03 00:15:14;;;;;;;5.43;2.30;;;;;;;6.19;61.94;102105.19;7400574;19;20019;-69
2023/05/03 00:17:42;;;;;;;7.22;2.80;;;;;;;6.15;61.85;102103.38;7400380;19;20015;-69
2023/05/03 00:20:11;;;;;;;7.68;3.28;;;;;;;6.12;62.07;102106.81;7397464;19;20434;-69
2023/05/03 00:22:42;;;;;;;5.93;2.50;;;;;;;6.10;62.03;102115.44;7399281;19;20023;-69
2023/05/03 00:25:11;;;;;;;5.78;2.85;;;;;;;6.02;62.11;102105.75;7399182;19;20035;-69
2023/05/03 00:27:40;;;;;;;5.75;3.08;;;;;;;5.97;62.14;102104.75;7400026;19;20023;-69
2023/05/03 00:30:10;;;;;;;4.55;3.00;;;;;;;5.91;62.37;102101.16;7399598;19;20371;-69
2023/05/03 00:32:39;;;;;;;3.97;2.80;;;;;;;5.85;62.52;102096.69;7399919;19;20019;-69
2023/05/03 00:35:08;;;;;;;7.57;2.95;;;;;;;5.82;62.51;102104.47;7397716;19;20032;-69
2023/05/03 00:37:39;;;;;;;6.28;2.75;;;;;;;5.77;62.67;102106.09;7399241;19;20014;-69
2023/05/03 00:40:12;;;;;;;5.80;2.80;;;;;;;5.74;63.06;102100.81;7400057;19;20015;-69
2023/05/03 00:42:40;;;;;;;12.50;3.70;;;;;;;5.73;62.87;102104.28;7397623;19;20018;-70
2023/05/03 00:45:10;;;;;;;3.35;2.78;;;;;;;5.69;62.94;102104.22;7398255;19;20423;-69
2023/05/03 00:47:38;;;;;;;4.32;2.92;;;;;;;5.68;63.10;102105.06;7398994;19;20031;-69
2023/05/03 00:50:10;;;;;;;3.58;2.92;;;;;;;5.66;63.23;102111.06;7399282;19;20019;-69
2023/05/03 00:52:39;;;;;;;4.63;2.92;;;;;;;5.63;63.35;102109.28;7398419;19;20041;-69
2023/05/03 00:55:11;;;;;;;5.60;3.08;;;;;;;5.62;64.11;102111.88;7399181;19;20026;-69
2023/05/03 00:57:40;;;;;;;3.97;3.10;;;;;;;5.60;63.46;102113.53;7399549;19;20019;-69
2023/05/03 01:00:12;;;;;;;7.20;3.17;;;;;;;5.59;63.37;102109.22;7398909;19;20010;-69
2023/05/03 01:02:40;;;;;;;5.15;2.90;;;;;;;5.58;63.23;102115.25;7398132;19;20014;-69
2023/05/03 01:05:09;;;;;;;5.55;2.95;;;;;;;5.55;63.45;102109.13;7397918;19;20022;-69
2023/05/03 01:07:47;;;;;;;5.50;2.90;;;;;;;5.53;63.47;102108.25;7398626;19;20111;-69
2023/05/03 01:10:27;;;;;;;6.43;3.13;;;;;;;5.50;63.68;102108.16;7398844;19;20019;-69
2023/05/03 01:13:06;;;;;;;3.58;2.70;;;;;;;5.47;64.32;102112.41;7398866;19;20018;-66
2023/05/03 01:15:45;;;;;;;5.18;2.95;;;;;;;5.40;64.52;102106.22;7399008;19;20014;-67
2023/05/03 01:18:17;;;;;;;6.90;3.10;;;;;;;5.36;63.87;102105.25;7398090;19;20392;-67
2023/05/03 01:20:50;;;;;;;6.18;3.45;;;;;;;5.33;64.31;102115.63;7398731;19;20022;-67
2023/05/03 01:23:30;;;;;;;5.15;3.00;;;;;;;5.30;64.43;102110.34;7397489;19;20027;-66
2023/05/03 01:26:01;;;;;;;7.90;3.10;;;;;;;5.25;64.85;102106.75;7397159;19;20026;-66
2023/05/03 01:28:30;;;;;;;7.15;3.20;;;;;;;5.22;64.56;102111.91;7396024;19;20031;-67
2023/05/03 01:31:00;;;;;;;7.05;3.67;;;;;;;5.18;65.15;102115.25;7398012;19;20177;-67
2023/05/03 01:33:38;;;;;;;6.85;2.75;;;;;;;5.15;64.92;102113.47;7396122;19;20014;-67
2023/05/03 01:36:13;;;;;;;7.07;3.13;;;;;;;5.12;65.25;102115.13;7398239;19;20023;-67
2023/05/03 01:38:42;;;;;;;5.82;3.35;;;;;;;5.10;65.10;102109.00;7398102;19;20039;-67
2023/05/03 01:41:17;;;;;;;7.18;3.35;;;;;;;5.05;66.39;102108.91;7395804;19;20026;-67
2023/05/03 01:43:47;;;;;;;5.65;3.13;;;;;;;5.01;65.76;102114.88;7396608;19;20023;-66
2023/05/03 01:46:16;;;;;;;7.35;3.72;;;;;;;4.95;66.13;102106.94;7396029;19;20022;-67
2023/05/03 01:48:44;;;;;;;6.47;3.22;;;;;;;4.88;66.41;102108.53;7395551;19;20015;-67
2023/05/03 01:51:13;;;;;;;6.80;3.55;;;;;;;4.83;66.77;102108.41;7395638;19;20027;-67
2023/05/03 01:53:41;;;;;;;4.35;3.17;;;;;;;4.80;66.60;102117.84;7396066;19;20022;-67
2023/05/03 01:56:12;;;;;;;6.32;3.35;;;;;;;4.77;66.56;102122.97;7396709;19;20430;-67
2023/05/03 01:58:41;;;;;;;8.40;3.67;;;;;;;4.73;66.51;102111.63;7395456;19;20031;-66
2023/05/03 02:01:09;;;;;;;6.32;3.83;;;;;;;4.71;66.32;102119.41;7396967;19;20417;-66
2023/05/03 02:03:38;;;;;;;5.68;3.40;;;;;;;4.70;66.54;102120.22;7394682;19;20481;-67
2023/05/03 02:06:06;;;;;;;9.35;3.90;;;;;;;4.69;66.52;102117.59;7395276;19;20019;-66
2023/05/03 02:08:35;;;;;;;7.30;4.32;;;;;;;4.67;67.11;102116.66;7397749;19;20010;-67
2023/05/03 02:11:03;;;;;;;4.38;3.20;;;;;;;4.62;66.74;102116.53;7396551;19;20022;-67
2023/05/03 02:13:34;;;;;;;9.40;3.83;;;;;;;4.61;67.25;102119.97;7396632;19;20035;-66
2023/05/03 02:16:03;;;;;;;4.43;3.25;;;;;;;4.59;66.98;102124.28;7396030;19;20014;-66
2023/05/03 02:18:32;;;;;;;4.88;3.47;;;;;;;4.56;66.93;102127.69;7396147;19;20039;-67
2023/05/03 02:21:01;;;;;;;6.05;3.53;;;;;;;4.52;67.20;102122.34;7394872;19;20039;-67
2023/05/03 02:23:29;;;;;;;9.88;3.75;;;;;;;4.51;66.94;102125.78;7393281;19;20041;-66
2023/05/03 02:25:58;;;;;;;4.45;2.97;;;;;;;4.48;66.98;102126.59;7394839;19;20391;-66
2023/05/03 02:28:26;;;;;;;4.95;3.47;;;;;;;4.47;67.28;102121.38;7395713;19;20018;-67
2023/05/03 02:30:57;;;;;;;6.65;3.53;;;;;;;4.44;67.15;102129.97;7395623;19;20489;-66
2023/05/03 02:33:26;;;;;;;7.75;3.60;;;;;;;4.43;67.07;102141.19;7394903;19;20041;-66
2023/05/03 02:35:54;;;;;;;5.18;3.20;;;;;;;4.39;67.07;102132.44;7394220;19;20019;-66
2023/05/03 02:38:23;;;;;;;6.97;3.78;;;;;;;4.37;67.61;102135.84;7395313;19;20427;-67
2023/05/03 02:40:51;;;;;;;7.80;3.40;;;;;;;4.33;67.39;102134.88;7395403;19;20022;-66
2023/05/03 02:43:20;;;;;;;5.00;3.13;;;;;;;4.30;67.73;102137.41;7394661;19;20035;-67
2023/05/03 02:45:48;;;;;;;6.85;3.78;;;;;;;4.25;67.78;102139.00;7394783;19;20026;-66
2023/05/03 02:48:19;;;;;;;9.95;3.50;;;;;;;4.20;68.49;102141.47;7393422;19;20502;-66
2023/05/03 02:50:48;;;;;;;4.53;3.85;;;;;;;4.15;68.20;102139.59;7395922;19;20031;-67
2023/05/03 02:53:16;;;;;;;6.63;4.13;;;;;;;4.12;68.27;102140.38;7394615;19;20035;-66
2023/05/03 02:55:45;;;;;;;5.82;4.43;;;;;;;4.09;68.24;102145.47;7395360;19;20019;-66
2023/05/03 02:58:14;;;;;;;8.73;4.30;;;;;;;4.06;68.20;102142.81;7395341;19;20019;-67
2023/05/03 03:00:42;;;;;;;8.13;4.95;;;;;;;4.02;68.52;102147.03;7395051;19;20014;-66
2023/05/03 03:03:11;;;;;;;8.77;4.90;;;;;;;3.99;68.71;102146.06;7394391;19;20384;-66
2023/05/03 03:05:42;;;;;;;7.63;5.13;;;;;;;3.97;68.59;102147.72;7393734;19;20014;-66
2023/05/03 03:08:10;;;;;;;10.07;4.65;;;;;;;3.94;68.61;102151.13;7395241;19;20022;-66
2023/05/03 03:10:39;;;;;;;9.30;4.43;;;;;;;3.92;68.88;102158.88;7394706;19;20082;-66
2023/05/03 03:13:07;;;;;;;9.23;4.28;;;;;;;3.89;69.05;102156.22;7393372;19;20090;-67
2023/05/03 03:15:36;;;;;;;6.13;3.80;;;;;;;3.88;69.35;102154.44;7392804;19;20035;-67
2023/05/03 03:18:04;;;;;;;6.60;3.72;;;;;;;3.85;70.08;102159.53;7394728;19;20078;-67
2023/05/03 03:20:42;;;;;;;7.10;3.97;;;;;;;3.82;70.12;102156.00;7394307;19;20481;-67
2023/05/03 03:23:10;;;;;;;11.20;4.13;;;;;;;3.78;70.06;102156.72;7394091;19;20025;-67
2023/05/03 03:25:39;;;;;;;8.27;3.28;;;;;;;3.74;69.79;102172.22;7393520;19;20362;-67
2023/05/03 03:28:08;;;;;;;8.27;3.63;;;;;;;3.72;69.70;102163.50;7394870;19;20013;-67
2023/05/03 03:30:36;;;;;;;6.38;3.97;;;;;;;3.73;70.44;102177.38;7394065;19;20373;-67
2023/05/03 03:33:05;;;;;;;8.45;3.67;;;;;;;3.70;70.26;102178.16;7393473;19;20018;-67
2023/05/03 03:35:33;;;;;;;5.97;3.67;;;;;;;3.67;70.72;102177.19;7397901;19;20483;-67
2023/05/03 03:38:05;;;;;;;5.95;4.00;;;;;;;3.63;71.01;102184.00;7401459;19;20014;-67
2023/05/03 03:40:34;;;;;;;10.48;5.30;;;;;;;3.57;71.23;102179.50;7401765;19;20022;-66
2023/05/03 03:43:02;;;;;;;8.02;4.20;;;;;;;3.59;71.02;102182.16;7400156;19;20090;-66
2023/05/03 03:45:30;;;;;;;6.53;4.22;;;;;;;3.59;71.31;102182.16;7400603;19;20010;-66
2023/05/03 03:47:59;;;;;;;6.30;4.03;;;;;;;3.56;72.81;102176.84;7400578;19;20086;-66
2023/05/03 03:50:28;;;;;;;5.47;4.10;;;;;;;3.55;71.80;102181.19;7400894;19;20015;-66
2023/05/03 03:52:56;;;;;;;12.27;4.95;;;;;;;3.53;72.13;102176.78;7400175;19;20094;-67
2023/05/03 03:55:27;;;;;;;9.45;4.10;;;;;;;3.52;72.32;102185.38;7401017;19;20024;-66
2023/05/03 03:57:56;;;;;;;11.73;4.75;;;;;;;3.49;72.38;102180.09;7401385;19;20086;-66
2023/05/03 04:00:24;;;;;;;6.97;4.43;;;;;;;3.48;72.56;102193.91;7400689;19;20082;-66
2023/05/03 04:02:53;;;;;;;8.90;4.63;;;;;;;3.47;72.91;102192.16;7399647;19;20014;-66
2023/05/03 04:05:21;;;;;;;9.50;5.43;;;;;;;3.45;72.55;102197.31;7399732;19;20018;-66
2023/05/03 04:07:50;;;;;;;10.32;4.57;;;;;;;3.46;72.51;102201.63;7397457;19;20078;-67
2023/05/03 04:10:18;;;;;;;5.45;4.65;;;;;;;3.46;72.49;102205.94;7400311;19;20363;-67
2023/05/03 04:12:49;;;;;;;9.10;4.63;;;;;;;3.48;72.12;102209.50;7399294;19;20425;-67
2023/05/03 04:15:18;;;;;;;11.23;4.60;;;;;;;3.48;72.05;102205.16;7400946;19;20018;-67
2023/05/03 04:17:47;;;;;;;10.25;4.72;;;;;;;3.52;72.12;102211.34;7400138;19;20421;-67
2023/05/03 04:20:16;;;;;;;11.23;4.70;;;;;;;3.52;72.02;102213.94;7400171;19;20022;-67
2023/05/03 04:22:45;;;;;;;10.00;5.22;;;;;;;3.55;71.90;102216.59;7398678;19;20078;-67
2023/05/03 04:25:15;;;;;;;6.03;4.40;;;;;;;3.57;72.13;102214.94;7399977;19;20082;-65
2023/05/03 04:27:44;;;;;;;8.40;4.53;;;;;;;3.59;72.07;102221.94;7399452;19;20078;-66
2023/05/03 04:30:16;;;;;;;7.60;3.70;;;;;;;3.61;72.26;102221.13;7396799;19;20022;-66
2023/05/03 04:32:46;;;;;;;7.38;4.60;;;;;;;3.62;72.16;102230.69;7398333;19;20018;-66
2023/05/03 04:35:14;;;;;;;10.75;4.32;;;;;;;3.61;71.98;102231.50;7397269;19;20036;-66
2023/05/03 04:37:43;;;;;;;9.80;4.78;;;;;;;3.64;72.11;102236.78;7399044;19;20036;-67
2023/05/03 04:40:12;;;;;;;9.85;5.00;;;;;;;3.66;72.11;102245.50;7399348;19;20044;-67
2023/05/03 04:42:41;;;;;;;8.45;4.90;;;;;;;3.68;72.08;102246.44;7398298;19;20034;-67
2023/05/03 04:45:13;;;;;;;9.30;4.80;;;;;;;3.70;72.03;102243.06;7397519;19;20025;-67
2023/05/03 04:47:44;;;;;;;6.05;4.28;;;;;;;3.72;72.19;102241.38;7396138;19;20039;-66
2023/05/03 04:50:13;;;;;;;11.68;4.85;;;;;;;3.74;72.10;102244.91;7398068;19;20506;-67
2023/05/03 04:52:41;;;;;;;6.40;4.68;;;;;;;3.76;72.20;102250.13;7397079;19;20019;-66
2023/05/03 04:55:11;;;;;;;7.35;4.72;;;;;;;3.78;72.49;102250.19;7398392;19;20085;-66
2023/05/03 04:57:39;;;;;;;7.80;4.38;;;;;;;3.78;73.04;102256.28;7398955;19;20094;-66
2023/05/03 05:00:10;;;;;;;10.35;5.43;;;;;;;3.79;72.64;102252.84;7397442;19;20442;-67
2023/05/03 05:02:39;;;;;;;9.43;4.93;;;;;;;3.82;72.71;102257.25;7397225;19;20040;-67
2023/05/03 05:05:12;;;;;;;9.77;5.20;;;;;;;3.84;72.41;102251.25;7396757;19;20069;-66
2023/05/03 05:07:40;;;;;;;12.70;5.43;;;;;;;3.87;72.65;102255.66;7395395;19;20082;-66
2023/05/03 05:10:11;;;;;;;8.63;4.95;;;;;;;3.90;72.79;102247.97;7397572;19;20074;-66
2023/05/03 05:12:39;;;;;;;7.20;4.55;;;;;;;3.91;73.28;102250.59;7396622;19;20086;-66
2023/05/03 05:15:09;;;;;;;8.15;5.25;;;;;;;3.92;73.55;102254.09;7396586;19;20018;-67
2023/05/03 05:17:38;;;;;;;73.10;38.58;;;;;;;3.95;72.70;102255.91;7396373;19;20495;-67
2023/05/03 05:20:11;;;;;;;8.65;5.55;;;;;;;3.99;72.98;102252.56;7396914;19;20022;-66
2023/05/03 05:22:39;;;;;;;9.17;5.10;;;;;;;4.03;72.96;102257.00;7397154;19;20018;-65
2023/05/03 05:25:09;;;;;;;11.60;6.78;;;;;;;4.08;72.64;102251.09;7397736;19;20036;-66
2023/05/03 05:27:38;;;;;;;8.45;5.22;;;;;;;4.13;72.87;102265.94;7394550;19;20015;-66
2023/05/03 05:30:08;;;;;;;7.43;4.95;;;;;;;4.17;72.93;102265.19;7396492;19;20085;-67
2023/05/03 05:32:36;;;;;;;7.28;4.82;;;;;;;4.21;72.82;102267.06;7395264;19;20038;-66
2023/05/03 05:35:05;;;;;;;6.55;4.65;;;;;;;4.25;72.83;102271.50;7394614;19;20015;-66
2023/05/03 05:37:36;;;;;;;7.60;4.95;;;;;;;4.29;72.92;102270.75;7396251;19;20383;-67
2023/05/03 05:40:06;;;;;;;8.82;4.93;;;;;;;4.32;72.98;102276.03;7396487;19;20160;-66
2023/05/03 05:42:35;;;;;;;9.32;5.03;;;;;;;4.37;72.63;102278.75;7395379;19;20017;-66
2023/05/03 05:45:10;;;;;;;11.27;5.20;;;;;;;4.42;72.39;102271.09;7396750;19;20085;-66
2023/05/03 05:47:38;;;;;;;8.95;5.07;;;;;;;4.47;72.95;102269.50;7395139;19;20017;-66
2023/05/03 05:50:08;;;;;;;10.90;5.03;;;;;;;4.52;72.54;102271.38;7396097;19;20436;-66
2023/05/03 05:52:39;;;;;;;6.53;4.40;;;;;;;4.58;72.54;102270.69;7395978;19;20093;-66
2023/05/03 05:55:12;;;;;;;9.40;5.22;;;;;;;4.65;72.26;102270.03;7397432;19;20074;-66
2023/05/03 05:57:47;;;;;;;7.07;4.40;;;;;;;4.72;72.34;102274.53;7395393;19;20025;-66
2023/05/03 06:00:18;;;;;;;9.50;4.90;;;;;;;4.80;71.83;102276.47;7396653;19;20019;-65
2023/05/03 06:02:47;;;;;;;10.73;4.90;;;;;;;4.85;71.92;102272.25;7394496;19;20018;-66
2023/05/03 06:05:16;;;;;;;9.88;4.32;;;;;;;4.94;71.75;102276.84;7395842;19;20082;-66
2023/05/03 06:07:47;;;;;;;6.45;4.03;;;;;;;5.01;71.37;102274.44;7394715;19;20085;-66
2023/05/03 06:10:15;;;;;;;8.35;4.50;;;;;;;5.06;71.24;102278.03;7396592;19;20082;-66
2023/05/03 06:12:44;;;;;;;11.20;4.60;;;;;;;5.13;71.04;102279.09;7397097;19;20033;-68
2023/05/03 06:15:12;;;;;;;13.93;4.47;;;;;;;5.21;70.95;102276.66;7395585;19;20485;-69
2023/05/03 06:17:41;;;;;;;7.85;3.90;;;;;;;5.29;70.94;102288.13;7395831;19;20082;-69
2023/05/03 06:20:12;;;;;;;5.88;3.85;;;;;;;5.37;70.83;102283.13;7396036;19;20086;-69
2023/05/03 06:22:41;;;;;;;5.40;4.07;;;;;;;5.45;70.53;102286.81;7395868;19;20033;-69
2023/05/03 06:25:12;;;;;;;8.32;3.65;;;;;;;5.54;69.96;102286.16;7393738;19;20111;-69
2023/05/03 06:27:41;;;;;;;7.40;3.03;;;;;;;5.62;69.83;102289.78;7393778;19;20014;-69
2023/05/03 06:30:32;;;;;;;6.43;2.75;;;;;;;5.71;69.38;102290.03;7396613;19;20010;-68
2023/05/03 06:33:00;;;;;;;8.63;2.63;;;;;;;5.81;67.95;102290.22;7394737;19;20090;-69
2023/05/03 06:35:36;;;;;;;9.98;3.20;;;;;;;5.89;67.71;102291.28;7393658;19;20074;-69
2023/05/03 06:38:04;;;;;;;10.07;2.47;;;;;;;5.96;67.23;102287.09;7395422;19;20374;-67
2023/05/03 06:40:36;;;;;;;8.48;2.53;;;;;;;6.03;67.00;102292.50;7397702;19;20014;-69
2023/05/03 06:43:05;;;;;;;7.68;3.22;;;;;;;6.12;66.62;102293.56;7393245;19;20026;-68
2023/05/03 06:45:33;;;;;;;5.30;2.10;;;;;;;6.21;66.36;102288.53;7394770;19;20381;-67
2023/05/03 06:48:02;;;;;;;5.25;2.50;;;;;;;6.29;66.10;102293.91;7393344;19;20025;-68
2023/05/03 06:50:30;;;;;;;9.10;2.67;;;;;;;6.39;65.82;102292.38;7395123;19;20030;-67
2023/05/03 06:52:59;;;;;;;4.45;2.17;;;;;;;6.45;64.50;102289.91;7394329;19;20090;-69
2023/05/03 06:55:27;;;;;;;8.57;2.25;;;;;;;6.52;64.80;102289.16;7394646;19;20373;-68
2023/05/03 06:57:58;;;;;;;5.32;2.58;;;;;;;6.57;64.71;102291.84;7394816;19;20078;-68
2023/05/03 07:00:27;;;;;;;6.45;2.40;;;;;;;6.63;64.45;102292.84;7394782;19;20072;-68
2023/05/03 07:02:55;;;;;;;7.32;2.20;;;;;;;6.67;64.08;102292.09;7393375;19;20495;-68
2023/05/03 07:05:24;;;;;;;6.13;2.00;;;;;;;6.72;63.40;102294.75;7395182;19;20025;-69
2023/05/03 07:07:52;;;;;;;8.48;2.25;;;;;;;6.77;63.35;102292.25;7393322;19;20023;-68
2023/05/03 07:10:21;;;;;;;4.47;2.33;;;;;;;6.80;63.05;102287.09;7401360;19;20078;-68
2023/05/03 07:12:50;;;;;;;9.32;2.95;;;;;;;6.86;62.81;102295.00;7402023;19;20086;-68
2023/05/03 07:15:21;;;;;;;6.47;2.58;;;;;;;6.92;62.44;102294.25;7401951;19;20504;-68
2023/05/03 07:17:49;;;;;;;6.05;2.65;;;;;;;6.97;61.74;102288.25;7402496;19;20147;-68
2023/05/03 07:20:17;;;;;;;5.57;1.55;;;;;;;7.05;61.30;102300.59;7401041;19;20189;-68
2023/05/03 07:22:47;;;;;;;6.40;2.10;;;;;;;7.11;60.33;102290.25;7401799;19;20014;-68
2023/05/03 07:25:16;;;;;;;6.35;1.60;;;;;;;7.17;60.72;102288.63;7400033;19;20363;-68
2023/05/03 07:27:45;;;;;;;5.38;1.73;;;;;;;7.24;60.32;102291.34;7399830;19;20035;-68
2023/05/03 07:30:14;;;;;;;4.00;2.08;;;;;;;7.32;60.52;102293.22;7401827;19;20018;-69
2023/05/03 07:32:45;;;;;;;8.82;4.05;;;;;;;7.38;60.46;102287.25;7397977;19;20014;-68
2023/05/03 07:35:22;;;;;;;4.43;2.08;;;;;;;7.44;60.08;102291.66;7399370;19;20013;-69
2023/05/03 07:37:50;;;;;;;7.45;2.15;;;;;;;7.49;60.21;102290.91;7398732;19;20022;-68
2023/05/03 07:40:19;;;;;;;5.03;2.55;;;;;;;7.55;60.25;102290.09;7400915;19;20509;-68
2023/05/03 07:42:47;;;;;;;7.75;2.50;;;;;;;7.61;60.25;102279.75;7397435;19;20022;-68
2023/05/03 07:45:16;;;;;;;9.15;3.15;;;;;;;7.68;60.21;102277.25;7400139;19;20018;-68
2023/05/03 07:47:47;;;;;;;2.78;1.92;;;;;;;7.75;59.78;102271.25;7399284;19;20010;-69
2023/05/03 07:50:15;;;;;;;11.60;2.30;;;;;;;7.83;59.70;102269.63;7401738;19;20396;-69
2023/05/03 07:52:44;;;;;;;4.90;1.80;;;;;;;7.91;58.98;102273.22;7400811;19;20078;-69
2023/05/03 07:55:12;;;;;;;7.05;2.20;;;;;;;8.01;59.09;102268.13;7398117;19;20035;-68
2023/05/03 07:57:41;;;;;;;5.93;1.83;;;;;;;8.08;58.25;102255.13;7400697;19;20082;-67
2023/05/03 08:00:11;;;;;;;3.97;2.03;;;;;;;8.14;57.95;102273.53;7400807;19;20019;-67
2023/05/03 08:02:40;;;;;;;5.63;1.77;;;;;;;8.19;57.73;102265.75;7400284;19;20041;-67
2023/05/03 08:05:13;;;;;;;4.30;1.77;;;;;;;8.25;57.48;102262.31;7400496;19;20032;-68
2023/05/03 08:07:41;;;;;;;8.57;2.05;;;;;;;8.30;57.23;102265.88;7397590;19;20496;-68
2023/05/03 08:10:11;;;;;;;6.65;2.20;;;;;;;8.35;56.99;102260.69;7397216;19;20489;-68
2023/05/03 08:12:39;;;;;;;8.00;2.05;;;;;;;8.41;56.83;102258.16;7400334;19;20014;-68
2023/05/03 08:15:09;;;;;;;7.05;2.63;;;;;;;8.51;56.74;102257.44;7400908;19;20019;-68
2023/05/03 08:17:42;;;;;;;6.60;1.95;;;;;;;8.62;55.17;102254.94;7399872;19;20485;-68
2023/05/03 08:20:15;;;;;;;6.68;1.90;;;;;;;8.66;55.38;102256.72;7398148;19;20545;-68
2023/05/03 08:22:45;;;;;;;5.63;1.52;;;;;;;8.78;55.02;102255.97;7398427;19;20376;-67
2023/05/03 08:25:15;;;;;;;5.93;1.95;;;;;;;8.84;53.02;102261.25;7397528;19;20044;-67
2023/05/03 08:27:44;;;;;;;5.10;2.28;;;;;;;8.90;53.34;102263.94;7398875;19;20083;-68
2023/05/03 08:30:13;;;;;;;4.80;1.73;;;;;;;8.93;53.61;102263.09;7399517;19;20018;-68
2023/05/03 08:32:41;;;;;;;3.55;1.60;;;;;;;8.98;53.12;102271.00;7398790;19;20477;-71
2023/05/03 08:35:12;;;;;;;3.70;1.40;;;;;;;9.02;51.85;102278.00;7396340;19;20345;-70
2023/05/03 08:37:44;;;;;;;5.63;1.60;;;;;;;9.07;52.79;102263.22;7397566;19;20007;-67
2023/05/03 08:40:15;;;;;;;7.70;2.17;;;;;;;9.13;52.94;102258.03;7399495;19;20384;-71
2023/05/03 08:42:45;;;;;;;3.50;1.75;;;;;;;9.22;52.84;102271.19;7398184;19;20014;-69
2023/05/03 08:45:15;;;;;;;3.22;1.67;;;;;;;9.31;52.41;102259.06;7398861;19;20014;-69
2023/05/03 08:47:44;;;;;;;4.82;2.05;;;;;;;9.39;52.10;102273.06;7398086;19;20094;-68
2023/05/03 08:50:14;;;;;;;4.90;1.90;;;;;;;9.46;51.45;102280.13;7398854;19;20082;-68
2023/05/03 08:52:45;;;;;;;3.00;1.40;;;;;;;9.50;51.85;102267.94;7398604;19;20375;-69
2023/05/03 08:55:14;;;;;;;6.72;1.60;;;;;;;9.56;51.84;102271.44;7398428;19;20020;-69
2023/05/03 08:57:42;;;;;;;5.68;1.80;;;;;;;9.60;51.97;102273.25;7398543;19;20368;-69
2023/05/03 09:00:13;;;;;;;4.07;1.70;;;;;;;9.65;51.19;102262.78;7398621;19;20011;-69
2023/05/03 09:02:41;;;;;;;8.90;2.40;;;;;;;9.69;51.62;102261.06;7398271;19;20036;-68
2023/05/03 09:05:37;;;;;;;7.47;3.20;;;;;;;9.80;50.06;102262.00;7398191;19;20434;-67
2023/05/03 09:08:10;;;;;;;6.68;2.10;;;;;;;9.88;50.62;102260.31;7395994;19;20507;-68
2023/05/03 09:10:42;;;;;;;3.75;2.08;;;;;;;9.95;49.80;102261.22;7396557;19;20037;-67
2023/05/03 09:13:12;;;;;;;7.50;1.67;;;;;;;9.99;49.94;102264.72;7397049;19;20077;-68
2023/05/03 09:15:41;;;;;;;3.78;1.98;;;;;;;9.97;48.92;102283.09;7395923;19;20025;-71
2023/05/03 09:18:11;;;;;;;11.07;2.03;;;;;;;9.98;49.67;102270.84;7397818;19;20355;-68
2023/05/03 09:20:41;;;;;;;6.30;1.80;;;;;;;9.98;49.69;102274.31;7398276;19;20078;-68
2023/05/03 09:23:12;;;;;;;5.72;2.03;;;;;;;9.99;49.76;102269.97;7396973;19;20029;-71
2023/05/03 09:25:45;;;;;;;3.38;1.50;;;;;;;10.02;49.40;102269.97;7397966;19;20410;-69
2023/05/03 09:28:14;;;;;;;6.38;2.00;;;;;;;10.05;49.61;102270.00;7398194;19;20086;-67
2023/05/03 09:30:42;;;;;;;4.78;2.00;;;;;;;10.09;49.64;102277.88;7399151;19;20452;-70
2023/05/03 09:33:11;;;;;;;8.40;2.00;;;;;;;10.16;49.60;102280.53;7394446;19;20154;-71
2023/05/03 09:35:40;;;;;;;3.17;1.70;;;;;;;10.23;49.48;102274.47;7395432;19;20473;-68
2023/05/03 09:38:08;;;;;;;4.88;2.05;;;;;;;10.33;49.32;102271.00;7396651;19;20011;-68
2023/05/03 09:40:48;;;;;;;4.85;1.80;;;;;;;10.44;48.63;102268.44;7397042;19;20082;-68
2023/05/03 09:43:16;;;;;;;5.45;1.83;;;;;;;10.52;48.63;102269.34;7396184;19;20015;-68
2023/05/03 09:45:45;;;;;;;4.78;1.80;;;;;;;10.60;48.61;102266.72;7395334;19;20014;-68
2023/05/03 09:48:14;;;;;;;2.80;1.98;;;;;;;10.66;48.00;102264.13;7395851;19;20418;-68
2023/05/03 09:50:45;;;;;;;2.45;1.77;;;;;;;10.62;47.12;102262.38;7396483;19;20015;-68
2023/05/03 09:53:13;;;;;;;3.38;1.65;;;;;;;10.62;47.46;102259.75;7397030;19;20058;-71
2023/05/03 09:55:44;;;;;;;5.40;1.92;;;;;;;10.57;46.67;102264.97;7396082;19;20011;-68
2023/05/03 09:58:13;;;;;;;5.57;2.10;;;;;;;10.57;47.43;102261.50;7396568;19;20052;-68
2023/05/03 10:00:47;;;;;;;4.53;1.60;;;;;;;10.57;47.24;102246.59;7394766;19;20493;-69
2023/05/03 10:03:26;;;;;;;5.28;1.88;;;;;;;10.61;46.98;102252.75;7395786;19;20090;-69
2023/05/03 10:05:56;;;;;;;5.18;2.45;;;;;;;10.62;47.48;102257.13;7398111;19;20023;-67
2023/05/03 10:08:34;;;;;;;5.43;1.98;;;;;;;10.66;47.23;102258.88;7396652;19;20045;-68
2023/05/03 10:11:06;;;;;;;6.30;2.00;;;;;;;10.74;47.72;102248.38;7406380;19;20026;-67
2023/05/03 10:13:34;;;;;;;3.42;1.73;;;;;;;10.81;47.75;102241.41;7395707;19;20019;-68
2023/05/03 10:16:08;;;;;;;3.83;1.90;;;;;;;10.91;47.67;102244.03;7395765;19;20025;-68
2023/05/03 10:18:42;;;;;;;5.28;2.03;;;;;;;11.02;47.44;102243.16;7396227;19;20376;-67
2023/05/03 10:21:16;;;;;;;3.67;1.88;;;;;;;11.11;47.21;102235.31;7396470;19;20018;-67
2023/05/03 10:24:12;;;;;;;5.68;1.95;;;;;;;11.18;45.29;102246.69;7394717;19;20073;-68
2023/05/03 10:26:46;;;;;;;4.80;1.73;;;;;;;11.17;45.95;102247.53;7399706;19;20025;-68
2023/05/03 10:29:52;;;;;;;4.60;2.25;;;;;;;11.18;46.49;102244.91;7394015;19;20031;-69
2023/05/03 10:32:39;;;;;;;2.08;1.73;;;;;;;11.20;46.35;102235.28;7395359;19;20031;-69
2023/05/03 10:35:10;;;;;;;2.83;2.22;;;;;;;11.25;46.19;102232.66;7401052;19;20033;-71
2023/05/03 10:37:42;;;;;;;6.25;1.77;;;;;;;11.28;45.40;102232.66;7395675;19;20023;-69
2023/05/03 10:40:14;;;;;;;5.18;1.70;;;;;;;11.34;45.71;102239.66;7395659;19;20082;-69
2023/05/03 10:42:47;;;;;;;4.65;2.22;;;;;;;11.37;45.73;102226.50;7394901;19;20025;-68
2023/05/03 10:45:25;;;;;;;5.25;2.20;;;;;;;11.39;45.30;102233.50;7393852;19;20070;-70
2023/05/03 10:48:19;;;;;;;7.25;2.35;;;;;;;11.41;45.06;102236.13;7393485;19;20037;-69
2023/05/03 10:50:48;;;;;;;5.07;2.58;;;;;;;11.46;46.05;102231.78;7395561;19;20029;-70
2023/05/03 10:53:38;;;;;;;6.38;2.28;;;;;;;11.52;44.81;102236.13;7393783;19;20069;-69
2023/05/03 10:56:09;;;;;;;4.40;2.13;;;;;;;11.60;45.54;102234.38;7393010;19;20023;-69
2023/05/03 10:58:44;;;;;;;5.95;1.92;;;;;;;11.65;45.31;102229.09;7393336;19;20018;-70
2023/05/03 11:01:15;;;;;;;4.47;1.98;;;;;;;11.71;45.36;102221.19;7394983;19;20018;-69
2023/05/03 11:03:53;;;;;;;7.30;2.05;;;;;;;11.79;45.35;102221.16;7392570;19;20025;-69
2023/05/03 11:06:35;;;;;;;4.97;1.77;;;;;;;11.83;44.19;102226.41;7392151;19;20031;-70
2023/05/03 11:09:06;;;;;;;2.83;1.98;;;;;;;11.83;45.05;102223.78;7392283;19;20078;-68
2023/05/03 11:11:35;;;;;;;6.03;2.03;;;;;;;11.85;45.17;102224.66;7391645;19;20017;-69
2023/05/03 11:14:07;;;;;;;7.15;1.67;;;;;;;11.89;44.43;102226.41;7392126;19;20077;-69
2023/05/03 11:16:39;;;;;;;6.18;1.70;;;;;;;11.93;44.55;102216.75;7394206;19;20085;-68
2023/05/03 11:19:08;;;;;;;8.50;1.83;;;;;;;11.98;44.78;102215.00;7393723;19;20524;-66
2023/05/03 11:21:36;;;;;;;3.97;1.95;;;;;;;12.06;44.77;102220.22;7391696;19;20030;-72
2023/05/03 11:24:05;;;;;;;8.10;2.97;;;;;;;12.14;44.74;102221.06;7391555;19;20039;-69
2023/05/03 11:26:37;;;;;;;5.32;2.20;;;;;;;12.25;44.60;102222.78;7394560;19;20082;-66
2023/05/03 11:29:12;;;;;;;5.93;2.45;;;;;;;12.38;44.14;102203.41;7391467;19;20420;-68
2023/05/03 11:31:41;;;;;;;6.00;1.85;;;;;;;12.49;44.08;102198.94;7392254;19;20074;-68
2023/05/03 11:34:10;;;;;;;5.80;1.88;;;;;;;12.60;44.26;102198.00;7391474;19;20015;-69
2023/05/03 11:36:45;;;;;;;4.72;1.80;;;;;;;12.74;43.58;102205.78;7390513;19;20018;-69
2023/05/03 11:39:15;;;;;;;4.10;1.90;;;;;;;12.85;43.37;102203.94;7394559;19;20018;-68
2023/05/03 11:41:43;;;;;;;4.50;1.60;;;;;;;12.97;43.31;102203.00;7393457;19;20513;-68
2023/05/03 11:44:15;;;;;;;3.90;1.48;;;;;;;13.13;42.75;102196.69;7391255;19;20094;-67
2023/05/03 11:46:43;;;;;;;3.88;1.45;;;;;;;13.31;42.24;102190.38;7392991;19;20036;-67